Time;durP1;ratioP1;P1;durP2;ratioP2;P2;SDS_P1;SDS_P2;PMS_P1;PMS_P2;Temp;Humidity;BMP_temperature;BMP_pressure;BME280_temperature;BME280_humidity;BME280_pressure;Samples;Min_cycle;Max_cycle;Signal;HPM_P1;HPM_P2
2022/01/28 13:27:26;;;;;;;4.53;2.30;;;;;;;;;;4918952;29;20238;-90
2022/01/28 13:29:57;;;;;;;4.03;1.13;;;;;;;;;;4918376;29;20203;-90
2022/01/28 13:32:39;;;;;;;2.80;1.83;;;;;;;;;;4915485;29;20692;-91
2022/01/28 13:35:12;;;;;;;6.67;1.93;;;;;;;;;;4904016;29;20238;-91
2022/01/28 13:37:40;;;;;;;4.10;2.17;;;;;;;;;;4907083;29;20211;-90
2022/01/28 13:40:10;;;;;;;6.23;1.87;;;;;;;;;;4922902;29;20215;-91
2022/01/28 13:42:38;;;;;;;2.87;1.33;;;;;;;;;;4909288;29;20200;-91
2022/01/28 13:45:08;;;;;;;3.27;1.17;;;;;;;;;;4903985;29;20708;-91
2022/01/28 13:47:50;;;;;;;4.47;1.17;;;;;;;;;;4907363;29;20298;-90
2022/01/28 13:50:24;;;;;;;2.93;1.70;;;;;;;;;;4912886;29;20219;-91
2022/01/28 13:55:49;;;;;;;1.67;1.20;;;;;;;;;;4921915;29;20218;-91
2022/01/28 13:58:17;;;;;;;3.63;0.90;;;;;;;;;;4916370;29;20219;-90
2022/01/28 14:00:47;;;;;;;2.73;2.00;;;;;;;;;;4910495;29;20271;-91
2022/01/28 14:03:17;;;;;;;2.60;1.83;;;;;;;;;;4915537;29;20254;-90
2022/01/28 14:05:52;;;;;;;3.23;2.10;;;;;;;;;;4914897;29;20203;-90
2022/01/28 14:08:35;;;;;;;2.07;1.10;;;;;;;;;;4915084;29;20257;-91
2022/01/28 14:50:38;;;;;;;6.03;2.70;;;;;;;;;;4915638;29;20266;-90
2022/01/28 14:53:06;;;;;;;5.43;3.40;;;;;;;;;;4916462;29;20317;-90
2022/01/28 14:55:34;;;;;;;3.00;1.93;;;;;;;;;;4904884;29;20227;-90
2022/01/28 14:58:01;;;;;;;6.10;3.57;;;;;;;;;;4911634;29;20290;-90
2022/01/28 15:00:28;;;;;;;4.73;2.50;;;;;;;;;;4904363;29;20263;-90
2022/01/28 15:02:56;;;;;;;3.53;2.57;;;;;;;;;;4903638;29;20199;-90
2022/01/28 15:05:24;;;;;;;6.33;2.50;;;;;;;;;;4907042;29;20235;-90
2022/01/28 15:07:52;;;;;;;6.07;2.83;;;;;;;;;;4900219;29;20673;-90
2022/01/28 15:10:29;;;;;;;3.67;2.63;;;;;;;;;;4898057;29;20226;-90
2022/01/28 15:12:56;;;;;;;5.53;3.00;;;;;;;;;;4909367;29;20699;-90
2022/01/28 15:15:24;;;;;;;3.87;2.90;;;;;;;;;;4899803;29;20224;-90
2022/01/28 15:17:51;;;;;;;4.60;3.37;;;;;;;;;;4892432;29;20211;-90
2022/01/28 15:20:18;;;;;;;3.37;2.70;;;;;;;;;;4894226;29;20218;-90
2022/01/28 15:22:46;;;;;;;6.70;3.07;;;;;;;;;;4905518;29;20216;-90
2022/01/28 15:29:00;;;;;;;7.93;3.30;;;;;;;;;;4823061;29;20253;-90
2022/01/28 15:34:19;;;;;;;5.80;4.03;;;;;;;;;;4898320;29;20231;-90
2022/01/28 15:36:51;;;;;;;10.47;3.43;;;;;;;;;;4897583;29;20219;-90
2022/01/28 15:39:19;;;;;;;4.27;3.00;;;;;;;;;;4903683;29;20222;-90
2022/01/28 15:41:47;;;;;;;7.47;3.93;;;;;;;;;;4914111;29;20249;-90
2022/01/28 15:44:16;;;;;;;4.17;2.77;;;;;;;;;;4916641;29;20591;-90
2022/01/28 15:46:45;;;;;;;8.33;3.37;;;;;;;;;;4901884;29;20306;-92
2022/01/28 15:49:13;;;;;;;4.37;2.80;;;;;;;;;;4905498;29;20218;-92
2022/01/28 15:51:40;;;;;;;4.27;2.80;;;;;;;;;;4906138;29;20207;-92
2022/01/28 15:54:11;;;;;;;8.73;3.10;;;;;;;;;;4895162;29;20235;-92
2022/01/28 15:56:38;;;;;;;5.43;2.60;;;;;;;;;;4898721;29;20207;-92
2022/01/28 15:59:05;;;;;;;4.60;3.20;;;;;;;;;;4902953;29;20218;-92
2022/01/28 16:01:34;;;;;;;7.17;2.47;;;;;;;;;;4897583;29;20211;-91
2022/01/28 16:04:02;;;;;;;5.13;2.63;;;;;;;;;;4890972;29;20716;-92
2022/01/28 16:06:30;;;;;;;6.47;3.20;;;;;;;;;;4900980;29;20675;-92
2022/01/28 16:08:59;;;;;;;3.23;2.50;;;;;;;;;;4896387;29;20290;-91
2022/01/28 16:11:31;;;;;;;6.93;2.87;;;;;;;;;;4891175;29;20234;-92
2022/01/28 16:14:12;;;;;;;8.13;3.20;;;;;;;;;;4904352;29;20237;-92
2022/01/28 16:19:26;;;;;;;3.97;2.50;;;;;;;;;;4891795;29;20566;-91
2022/01/28 16:21:55;;;;;;;6.57;3.00;;;;;;;;;;4894442;29;20591;-93
2022/01/28 16:24:22;;;;;;;4.40;2.87;;;;;;;;;;4899720;29;20227;-92
2022/01/28 16:26:50;;;;;;;6.83;3.13;;;;;;;;;;4909590;29;20226;-92
2022/01/28 16:29:17;;;;;;;5.40;2.47;;;;;;;;;;4892571;29;20207;-92
2022/01/28 16:31:46;;;;;;;4.30;3.03;;;;;;;;;;4892744;29;20206;-92
2022/01/28 16:34:15;;;;;;;5.03;2.80;;;;;;;;;;4897396;29;20235;-92
2022/01/28 16:36:43;;;;;;;5.03;3.10;;;;;;;;;;4891484;29;20580;-92
2022/01/28 16:39:12;;;;;;;8.43;2.93;;;;;;;;;;4890792;29;20231;-92
2022/01/28 16:41:42;;;;;;;5.13;3.00;;;;;;;;;;4892669;29;20230;-92
2022/01/28 16:44:12;;;;;;;4.73;3.10;;;;;;;;;;4890489;29;20312;-92
2022/01/28 16:46:40;;;;;;;7.60;3.57;;;;;;;;;;4888850;29;20701;-91
2022/01/28 16:49:09;;;;;;;4.27;3.30;;;;;;;;;;4897894;29;20321;-92
2022/01/28 16:51:37;;;;;;;7.13;3.77;;;;;;;;;;4890208;29;20233;-90
2022/01/28 16:54:05;;;;;;;5.40;3.20;;;;;;;;;;4890739;29;20268;-90
2022/01/28 16:56:32;;;;;;;7.87;3.50;;;;;;;;;;4893153;29;20279;-91
2022/01/28 16:59:00;;;;;;;5.27;2.40;;;;;;;;;;4890437;29;20226;-90
2022/01/28 17:01:27;;;;;;;9.67;5.70;;;;;;;;;;4890838;29;20225;-90
2022/01/28 17:03:55;;;;;;;4.10;2.77;;;;;;;;;;4888531;29;20287;-90
2022/01/28 17:06:26;;;;;;;5.93;3.40;;;;;;;;;;4897709;29;20222;-90
2022/01/28 17:08:57;;;;;;;6.30;3.50;;;;;;;;;;4890094;29;20726;-90
2022/01/28 17:11:39;;;;;;;6.43;3.40;;;;;;;;;;4887968;29;20211;-89
2022/01/28 17:14:06;;;;;;;5.53;3.37;;;;;;;;;;4897066;29;20638;-89
2022/01/28 17:16:34;;;;;;;6.97;3.40;;;;;;;;;;4909382;29;20207;-89
2022/01/28 17:19:01;;;;;;;6.07;3.40;;;;;;;;;;4909303;29;20226;-91
2022/01/28 17:21:32;;;;;;;6.77;3.30;;;;;;;;;;4892591;29;20760;-91
2022/01/28 17:23:59;;;;;;;5.67;3.50;;;;;;;;;;4903521;29;20234;-90
2022/01/28 17:26:27;;;;;;;7.30;3.60;;;;;;;;;;4909279;29;20575;-91
2022/01/28 17:28:54;;;;;;;6.23;3.53;;;;;;;;;;4908900;29;20633;-90
2022/01/28 17:31:22;;;;;;;5.83;3.60;;;;;;;;;;4892005;29;20816;-90
2022/01/28 17:33:49;;;;;;;5.97;3.60;;;;;;;;;;4889986;29;20232;-90
2022/01/28 17:36:16;;;;;;;7.97;3.40;;;;;;;;;;4906380;29;20211;-91
2022/01/28 17:38:45;;;;;;;8.23;3.33;;;;;;;;;;4899421;29;20203;-90
2022/01/28 17:41:14;;;;;;;5.43;2.77;;;;;;;;;;4899549;29;20225;-90
2022/01/28 17:43:42;;;;;;;6.63;3.20;;;;;;;;;;4905024;29;20246;-90
2022/01/28 17:46:09;;;;;;;7.73;4.27;;;;;;;;;;4912455;29;20221;-90
2022/01/28 17:48:36;;;;;;;5.33;3.77;;;;;;;;;;4895813;29;20859;-90
2022/01/28 17:51:04;;;;;;;6.40;3.93;;;;;;;;;;4893667;29;20223;-91
2022/01/28 19:54:46;;;;;;;6.63;4.20;;;;;;;;;;4842941;29;20243;-92
2022/01/28 19:57:16;;;;;;;8.93;4.27;;;;;;;;;;4851922;29;20647;-92
2022/01/28 19:59:44;;;;;;;7.63;5.40;;;;;;;;;;4879465;29;20222;-91
2022/01/28 20:02:16;;;;;;;8.93;4.90;;;;;;;;;;4910216;29;20215;-92
2022/01/28 20:04:47;;;;;;;8.10;4.43;;;;;;;;;;4903955;29;20226;-92
2022/01/28 20:07:16;;;;;;;6.13;4.63;;;;;;;;;;4911962;29;20219;-92
2022/01/28 20:09:47;;;;;;;6.30;4.80;;;;;;;;;;4909883;29;20225;-91
2022/01/28 20:12:21;;;;;;;8.70;5.40;;;;;;;;;;4909801;29;20237;-91
2022/01/28 20:14:50;;;;;;;7.57;4.80;;;;;;;;;;4902075;29;20241;-90
2022/01/28 20:17:17;;;;;;;8.00;4.53;;;;;;;;;;4909187;29;20862;-92
2022/01/28 20:20:08;;;;;;;8.37;5.07;;;;;;;;;;4906128;29;20214;-92
2022/01/28 20:22:46;;;;;;;5.93;4.40;;;;;;;;;;4899196;29;20254;-92
2022/01/28 20:25:38;;;;;;;7.40;5.20;;;;;;;;;;4898896;29;20309;-91
2022/01/28 20:31:20;;;;;;;8.53;4.37;;;;;;;;;;4899902;29;20185;-92
2022/01/28 20:37:02;;;;;;;7.20;4.70;;;;;;;;;;4903513;29;20202;-91
2022/01/28 20:42:26;;;;;;;6.73;4.57;;;;;;;;;;4904321;29;20912;-91
2022/01/28 20:48:09;;;;;;;6.60;5.00;;;;;;;;;;4913942;29;20220;-92
2022/01/28 20:50:43;;;;;;;7.77;5.47;;;;;;;;;;4911216;29;20234;-92
2022/01/28 20:53:18;;;;;;;7.37;5.17;;;;;;;;;;4901509;29;20265;-92
2022/01/28 20:55:46;;;;;;;7.00;4.87;;;;;;;;;;4905611;29;20222;-92
2022/01/28 20:58:14;;;;;;;12.03;5.37;;;;;;;;;;4911912;29;20424;-92
2022/01/28 21:00:44;;;;;;;6.63;4.90;;;;;;;;;;4910639;29;20206;-91
2022/01/28 21:03:14;;;;;;;7.20;4.93;;;;;;;;;;4897467;29;20211;-92
2022/01/28 21:05:45;;;;;;;7.37;5.03;;;;;;;;;;4894866;29;20211;-92
2022/01/28 21:08:14;;;;;;;8.27;5.17;;;;;;;;;;4900071;29;20326;-91
2022/01/28 21:10:42;;;;;;;7.73;4.67;;;;;;;;;;4911656;29;20207;-92
2022/01/28 21:13:10;;;;;;;7.47;5.37;;;;;;;;;;4916661;29;20217;-92
2022/01/28 21:15:41;;;;;;;7.03;5.70;;;;;;;;;;4916943;29;20230;-92
2022/01/28 21:18:09;;;;;;;9.37;5.87;;;;;;;;;;4915301;29;20217;-91
2022/01/28 21:20:40;;;;;;;8.30;5.33;;;;;;;;;;4908417;29;20203;-92
2022/01/28 21:23:08;;;;;;;7.13;5.27;;;;;;;;;;4917048;29;20660;-91
2022/01/28 21:25:52;;;;;;;8.23;5.80;;;;;;;;;;4915206;29;20905;-91
2022/01/28 21:31:27;;;;;;;8.57;5.77;;;;;;;;;;4903166;29;20718;-91
2022/01/28 21:33:55;;;;;;;9.00;5.87;;;;;;;;;;4914804;29;20289;-92
2022/01/28 21:36:24;;;;;;;9.43;5.33;;;;;;;;;;4914568;29;20207;-91
2022/01/28 21:38:51;;;;;;;7.83;5.33;;;;;;;;;;4900142;29;20213;-91
2022/01/28 21:41:19;;;;;;;10.63;5.60;;;;;;;;;;4914860;29;20294;-92
2022/01/28 21:43:47;;;;;;;9.67;6.13;;;;;;;;;;4915435;29;20223;-91
2022/01/28 21:46:17;;;;;;;9.07;5.20;;;;;;;;;;4910136;29;20210;-91
2022/01/28 21:48:47;;;;;;;7.83;5.37;;;;;;;;;;4911806;29;20210;-91
2022/01/28 21:51:22;;;;;;;8.90;5.47;;;;;;;;;;4915488;29;20214;-91
2022/01/28 21:53:51;;;;;;;10.80;5.70;;;;;;;;;;4901031;29;20642;-91
2022/01/28 21:56:19;;;;;;;8.83;5.93;;;;;;;;;;4912690;29;20219;-92
2022/01/28 21:58:47;;;;;;;6.83;4.47;;;;;;;;;;4915723;29;20215;-92
2022/01/28 22:01:14;;;;;;;7.50;5.60;;;;;;;;;;4924235;29;20596;-91
2022/01/28 22:03:41;;;;;;;11.30;5.27;;;;;;;;;;4912982;29;20226;-91
2022/01/28 22:06:09;;;;;;;9.10;5.43;;;;;;;;;;4914784;29;20313;-92
2022/01/28 22:08:36;;;;;;;7.80;5.30;;;;;;;;;;4915168;29;20206;-91
2022/01/28 22:11:05;;;;;;;10.87;6.10;;;;;;;;;;4916055;29;20270;-91
2022/01/28 22:13:33;;;;;;;7.70;5.17;;;;;;;;;;4912781;29;20217;-91
2022/01/28 22:16:01;;;;;;;9.80;6.10;;;;;;;;;;4914132;29;20213;-92
2022/01/28 22:18:29;;;;;;;12.43;6.70;;;;;;;;;;4912274;29;20222;-91
2022/01/28 22:20:56;;;;;;;11.17;7.00;;;;;;;;;;4912334;29;20223;-91
2022/01/28 22:23:24;;;;;;;7.43;5.87;;;;;;;;;;4908835;29;20209;-91
2022/01/28 22:25:51;;;;;;;10.60;6.87;;;;;;;;;;4901814;29;20219;-92
2022/01/28 22:28:20;;;;;;;8.10;6.10;;;;;;;;;;4901430;29;20211;-92
2022/01/28 22:30:49;;;;;;;9.07;5.93;;;;;;;;;;4911045;29;20204;-91
2022/01/28 22:33:16;;;;;;;7.80;6.00;;;;;;;;;;4901552;29;20576;-91
2022/01/28 22:35:43;;;;;;;9.50;6.43;;;;;;;;;;4914427;29;20235;-92
2022/01/28 22:38:11;;;;;;;7.47;5.80;;;;;;;;;;4913086;29;20211;-91
2022/01/28 22:40:38;;;;;;;11.93;6.90;;;;;;;;;;4911891;29;20203;-91
2022/01/28 22:43:06;;;;;;;8.10;6.13;;;;;;;;;;4913254;29;20247;-91
2022/01/28 22:45:35;;;;;;;10.33;6.47;;;;;;;;;;4915079;29;20235;-90
2022/01/28 22:48:05;;;;;;;8.63;5.83;;;;;;;;;;4910364;29;20652;-92
2022/01/28 22:50:33;;;;;;;8.40;5.70;;;;;;;;;;4913709;29;20280;-91
2022/01/28 22:53:00;;;;;;;8.97;5.60;;;;;;;;;;4914802;29;20215;-91
2022/01/28 22:55:27;;;;;;;6.67;5.90;;;;;;;;;;4912685;29;20233;-92
2022/01/28 22:57:55;;;;;;;11.47;6.13;;;;;;;;;;4906645;29;20918;-91
2022/01/28 23:00:22;;;;;;;8.70;6.37;;;;;;;;;;4907252;29;20221;-91
2022/01/28 23:02:51;;;;;;;9.70;5.37;;;;;;;;;;4915129;29;20719;-91
2022/01/28 23:05:21;;;;;;;10.47;6.20;;;;;;;;;;4912278;29;20238;-92
2022/01/28 23:07:49;;;;;;;10.20;6.33;;;;;;;;;;4903246;29;20292;-91
2022/01/28 23:10:16;;;;;;;9.83;6.57;;;;;;;;;;4914426;29;20206;-91
2022/01/28 23:12:44;;;;;;;10.83;6.20;;;;;;;;;;4914661;29;20642;-91
2022/01/28 23:15:12;;;;;;;8.33;5.53;;;;;;;;;;4906224;29;20239;-91
2022/01/28 23:17:39;;;;;;;7.17;5.67;;;;;;;;;;4911787;29;20218;-91
2022/01/28 23:20:09;;;;;;;9.00;5.40;;;;;;;;;;4914783;29;20278;-92
2022/01/28 23:22:37;;;;;;;8.20;5.43;;;;;;;;;;4912957;29;20207;-91
2022/01/28 23:25:05;;;;;;;14.73;5.37;;;;;;;;;;4913197;29;20233;-91
2022/01/28 23:27:33;;;;;;;9.77;5.40;;;;;;;;;;4904105;29;20221;-91
2022/01/28 23:30:00;;;;;;;8.17;6.00;;;;;;;;;;4903426;29;20222;-91
2022/01/28 23:32:28;;;;;;;9.03;5.33;;;;;;;;;;4909162;29;20297;-91
2022/01/28 23:34:55;;;;;;;9.77;5.30;;;;;;;;;;4914345;29;20234;-91
2022/01/28 23:37:46;;;;;;;13.30;8.23;;;;;;;;;;4914001;29;20203;-92
2022/01/28 23:40:15;;;;;;;7.20;4.93;;;;;;;;;;4911823;29;20214;-91
2022/01/28 23:42:42;;;;;;;7.27;5.10;;;;;;;;;;4895006;29;20215;-91
2022/01/28 23:45:12;;;;;;;9.90;5.80;;;;;;;;;;4905650;29;20245;-92
2022/01/28 23:47:40;;;;;;;10.57;6.80;;;;;;;;;;4913026;29;20356;-91
2022/01/28 23:50:07;;;;;;;8.93;5.93;;;;;;;;;;4912439;29;20274;-91
2022/01/28 23:52:35;;;;;;;8.07;5.07;;;;;;;;;;4906298;29;20210;-91
2022/01/28 23:55:02;;;;;;;8.13;5.63;;;;;;;;;;4913965;29;20290;-91
2022/01/28 23:57:31;;;;;;;9.50;5.70;;;;;;;;;;4912249;29;20215;-91
2022/01/28 23:59:58;;;;;;;7.13;5.50;;;;;;;;;;4913689;29;20497;-92
